バミューダ の空港の天気 - METARとTAF

バミューダ国際空港 ( TXKF / BDA ) - バミューダ諸島 Ferry Reach
飛行場実況気象(Metar)
観測時間10/20 00:55 ADT (10/20 03:55 UTC)
風向・風速北北東 3m/s
視程10km以上
天気現象
全天の8割程度の雲 雲底高度 1220m
全天の8割程度の雲 雲底高度 9140m
気温23℃
湿度61%
気圧1019hPa
METARTXKF 200355Z 02006KT 9999 BKN040 BKN300 23/15 Q1019
過去の天気等 Google飛行場航空写真 Wunderground天気予報

過去48時間のMETAR

飛行場予報(TAF)
発表時間: 10/19 20:35 ADT (10/19 23:35 UTC)
予報対象時間: 19日21時 ADT ~ 20日21時 ADT
風向・風速北 5m/s
視程10km以上
全天の4割程度の雲 雲底高度 1070m
全天の8割程度の雲 雲底高度 9140m
20日0時 ADT ~ 20日3時 ADT に徐々に
風向・風速不定 3m/s
TAF TXKF 192335Z 2000/2024 35010KT 9999 SCT035 BKN300
BECMG 2003/2006 VRB05KT